METAR - September 28th Campaign Operations Area

Post Reply
User avatar
J5_Matthias
Leutnant
Leutnant
Posts: 456
Joined: 14 May 2012, 16:28
Location: Martinsburg, West Virginia, United States of America

METAR - September 28th Campaign Operations Area

Unread post by J5_Matthias » 28 Sep 2019, 16:00

UUOK 281145Z 18002MPS CAVOK 13/01 Q1017 /////// NOSIG

CURRENT WEATHER WEATHER REPORTING OFFICE UUOK
SEPTEMBER 28 1145 GMT TIME
WIND FROM 180 AT 2 METERS PER SECOND
VISIBILITY AT LEAST 6SM
CLOUDS AND VISIBILITY OK
TEMPERATURE 13 C / DEWPOINT 1 C
SEA LEVEL PRESSUE 1017MB (762 mmHG)
NO SIGNIFICANT CONVECTIVE WEATHER

WINDS ALOFT FORECAST:
500 - 3,500 FEET 200 - 1000 METERS WIND FROM 150 AT 5 KNOTS (2.5 M/S)
3500 - 7000 FEET 1000 - 2000 METERS WIND FROM 225 AT 8 KNOTS (4 M/S)
7000-17,500 FEET 2000 - 5000 METERS WIND FROM 315 AT 18 KNOTS (9 M/S)
17,500 FEET / 5000 METERS - WIND FROM 315 AT 23 KNOTS (11.5 M/S)
J5_Matthias
Jagdstaffel 5
ImageImageImage

Post Reply